| Känerkinden Datum - Zeit | Temperatur | Taupunkt | Feuchte | Solar | Wind | aus Richtung | Windböen | Luftdruck (QFF) | Regen | Regenstärke | Trend |
| 05.09.2026 - 05.45Uhr | 20.1 °C | 14.2 °C | 69 % | 0.0 W/m² | 11.8 km/h | West-SW | 17.6 km/h | 1017.5 hPa | 0.0 mm | 0.0 mm/h | sonnig |
| 05.09.2026 - 05.50Uhr | 20.1 °C | 14.2 °C | 69 % | 0.0 W/m² | 11.3 km/h | Westen | 22.7 km/h | 1017.6 hPa | 0.0 mm | 0.0 mm/h | sonnig |
| 05.09.2026 - 05.55Uhr | 20.1 °C | 14.4 °C | 70 % | 0.0 W/m² | 11.0 km/h | Westen | 16.2 km/h | 1017.6 hPa | 0.0 mm | 0.0 mm/h | sonnig |
| 05.09.2026 - 06.00Uhr | 20.1 °C | 14.5 °C | 70 % | 0.0 W/m² | 10.0 km/h | West-SW | 16.2 km/h | 1017.6 hPa | 0.0 mm | 0.0 mm/h | sonnig |
| 05.09.2026 - 06.05Uhr | 20.1 °C | 14.5 °C | 70 % | 0.0 W/m² | 9.8 km/h | West-SW | 14.4 km/h | 1017.6 hPa | 0.0 mm | 0.0 mm/h | sonnig |
| 05.09.2026 - 06.10Uhr | 20.1 °C | 14.5 °C | 70 % | 0.0 W/m² | 7.8 km/h | Westen | 13.0 km/h | 1017.7 hPa | 0.0 mm | 0.0 mm/h | sonnig |
| 05.09.2026 - 06.15Uhr | 20.0 °C | 14.4 °C | 70 % | 0.0 W/m² | 7.7 km/h | West-SW | 11.2 km/h | 1017.6 hPa | 0.0 mm | 0.0 mm/h | sonnig |
| 05.09.2026 - 06.20Uhr | 20.0 °C | 14.4 °C | 70 % | 0.0 W/m² | 7.4 km/h | West-SW | 13.0 km/h | 1017.6 hPa | 0.0 mm | 0.0 mm/h | sonnig |
| 05.09.2026 - 06.25Uhr | 19.9 °C | 14.3 °C | 70 % | 0.0 W/m² | 8.6 km/h | West-SW | 14.4 km/h | 1017.7 hPa | 0.0 mm | 0.0 mm/h | sonnig |
| 05.09.2026 - 06.30Uhr | 19.9 °C | 14.3 °C | 70 % | 0.0 W/m² | 7.2 km/h | West-SW | 9.7 km/h | 1017.7 hPa | 0.0 mm | 0.0 mm/h | sonnig |
| 05.09.2026 - 06.35Uhr | 19.8 °C | 14.3 °C | 70 % | 0.0 W/m² | 7.9 km/h | Südwesten | 17.6 km/h | 1017.7 hPa | 0.0 mm | 0.0 mm/h | sonnig |
| 05.09.2026 - 06.40Uhr | 19.9 °C | 14.3 °C | 70 % | 0.0 W/m² | 8.9 km/h | Südwesten | 13.0 km/h | 1017.6 hPa | 0.0 mm | 0.0 mm/h | sonnig |
| 05.09.2026 - 06.45Uhr | 19.9 °C | 14.3 °C | 70 % | 0.0 W/m² | 8.1 km/h | Südwesten | 14.4 km/h | 1017.6 hPa | 0.0 mm | 0.0 mm/h | sonnig |
| 05.09.2026 - 06.50Uhr | 20.0 °C | 14.4 °C | 70 % | 0.0 W/m² | 8.7 km/h | West-SW | 13.0 km/h | 1017.6 hPa | 0.0 mm | 0.0 mm/h | sonnig |
| 05.09.2026 - 06.55Uhr | 20.0 °C | 14.4 °C | 70 % | 0.0 W/m² | 8.4 km/h | Südwesten | 14.4 km/h | 1017.7 hPa | 0.0 mm | 0.0 mm/h | sonnig |
| 05.09.2026 - 07.00Uhr | 20.1 °C | 14.4 °C | 70 % | 0.0 W/m² | 10.0 km/h | West-SW | 14.4 km/h | 1017.8 hPa | 0.0 mm | 0.0 mm/h | sonnig |
| 05.09.2026 - 07.05Uhr | 20.1 °C | 14.5 °C | 70 % | 0.0 W/m² | 9.6 km/h | Südwesten | 14.4 km/h | 1017.9 hPa | 0.0 mm | 0.0 mm/h | wechselhaft |
| 05.09.2026 - 07.10Uhr | 20.1 °C | 14.5 °C | 70 % | 5.0 W/m² | 9.7 km/h | West-SW | 14.4 km/h | 1018.1 hPa | 0.0 mm | 0.0 mm/h | wechselhaft |
| 05.09.2026 - 07.15Uhr | 20.0 °C | 14.5 °C | 71 % | 5.0 W/m² | 6.9 km/h | West-SW | 9.7 km/h | 1018.2 hPa | 0.0 mm | 0.0 mm/h | wechselhaft |
| 05.09.2026 - 07.20Uhr | 19.8 °C | 14.4 °C | 71 % | 7.0 W/m² | 6.9 km/h | West-SW | 9.7 km/h | 1018.3 hPa | 0.0 mm | 0.0 mm/h | wechselhaft |
| 05.09.2026 - 07.25Uhr | 19.8 °C | 14.5 °C | 72 % | 11.0 W/m² | 8.3 km/h | West-SW | 13.0 km/h | 1018.3 hPa | 0.0 mm | 0.0 mm/h | wechselhaft |
| 05.09.2026 - 07.30Uhr | 19.7 °C | 14.5 °C | 72 % | 16.0 W/m² | 9.0 km/h | West-SW | 13.0 km/h | 1018.2 hPa | 0.0 mm | 0.0 mm/h | wechselhaft |
| 05.09.2026 - 07.35Uhr | 19.8 °C | 14.5 °C | 72 % | 19.0 W/m² | 10.7 km/h | Westen | 16.2 km/h | 1018.3 hPa | 0.0 mm | 0.0 mm/h | wechselhaft |
| 05.09.2026 - 07.40Uhr | 19.8 °C | 14.4 °C | 71 % | 21.0 W/m² | 9.5 km/h | Westen | 13.0 km/h | 1018.4 hPa | 0.0 mm | 0.0 mm/h | wechselhaft |
| 05.09.2026 - 07.45Uhr | 19.9 °C | 14.4 °C | 71 % | 21.0 W/m² | 11.6 km/h | Westen | 19.4 km/h | 1018.4 hPa | 0.0 mm | 0.0 mm/h | wechselhaft |
| 05.09.2026 - 07.50Uhr | 19.9 °C | 14.5 °C | 71 % | 16.0 W/m² | 10.6 km/h | Westen | 14.4 km/h | 1018.5 hPa | 0.0 mm | 0.0 mm/h | wechselhaft |
| 05.09.2026 - 07.55Uhr | 19.9 °C | 14.5 °C | 71 % | 21.0 W/m² | 10.0 km/h | Westen | 16.2 km/h | 1018.5 hPa | 0.0 mm | 0.0 mm/h | wechselhaft |
| 05.09.2026 - 08.00Uhr | 19.9 °C | 14.5 °C | 71 % | 35.0 W/m² | 10.8 km/h | Westen | 17.6 km/h | 1018.5 hPa | 0.0 mm | 0.0 mm/h | wechselhaft |
| 05.09.2026 - 08.05Uhr | 19.9 °C | 14.5 °C | 71 % | 42.0 W/m² | 10.9 km/h | Westen | 14.4 km/h | 1018.6 hPa | 0.0 mm | 0.0 mm/h | sonnig |
| 05.09.2026 - 08.10Uhr | 19.9 °C | 14.5 °C | 71 % | 42.0 W/m² | 10.3 km/h | Westen | 16.2 km/h | 1018.6 hPa | 0.0 mm | 0.0 mm/h | sonnig |
| 05.09.2026 - 08.15Uhr | 20.0 °C | 14.6 °C | 71 % | 37.0 W/m² | 11.8 km/h | West-SW | 19.4 km/h | 1018.7 hPa | 0.0 mm | 0.0 mm/h | sonnig |
| 05.09.2026 - 08.20Uhr | 20.0 °C | 14.6 °C | 71 % | 33.0 W/m² | 13.2 km/h | Westen | 22.7 km/h | 1018.8 hPa | 0.0 mm | 0.0 mm/h | sonnig |
| 05.09.2026 - 08.25Uhr | 20.0 °C | 14.6 °C | 71 % | 30.0 W/m² | 12.4 km/h | Westen | 19.4 km/h | 1018.8 hPa | 0.0 mm | 0.0 mm/h | sonnig |
| 05.09.2026 - 08.30Uhr | 20.0 °C | 14.7 °C | 71 % | 49.0 W/m² | 12.2 km/h | Westen | 17.6 km/h | 1018.9 hPa | 0.0 mm | 0.0 mm/h | sonnig |
| 05.09.2026 - 08.35Uhr | 19.9 °C | 14.8 °C | 73 % | 81.0 W/m² | 10.0 km/h | West-SW | 14.4 km/h | 1018.9 hPa | 0.0 mm | 0.0 mm/h | sonnig |
| 05.09.2026 - 08.40Uhr | 19.7 °C | 14.8 °C | 74 % | 116.0 W/m² | 10.7 km/h | West-SW | 14.4 km/h | 1019.0 hPa | 0.0 mm | 0.0 mm/h | sonnig |
| 05.09.2026 - 08.45Uhr | 19.7 °C | 14.9 °C | 74 % | 114.0 W/m² | 10.2 km/h | Westen | 14.4 km/h | 1019.0 hPa | 0.0 mm | 0.0 mm/h | sonnig |
| 05.09.2026 - 08.50Uhr | 19.7 °C | 14.9 °C | 74 % | 120.0 W/m² | 7.5 km/h | West-SW | 13.0 km/h | 1019.1 hPa | 0.0 mm | 0.0 mm/h | sonnig |
| 05.09.2026 - 08.55Uhr | 19.7 °C | 14.9 °C | 74 % | 134.0 W/m² | 6.2 km/h | Westen | 9.7 km/h | 1019.1 hPa | 0.0 mm | 0.0 mm/h | sonnig |
| 05.09.2026 - 09.00Uhr | 19.8 °C | 15.0 °C | 74 % | 130.0 W/m² | 6.2 km/h | West-SW | 9.7 km/h | 1019.0 hPa | 0.0 mm | 0.0 mm/h | sonnig |
| 05.09.2026 - 09.05Uhr | 19.8 °C | 15.1 °C | 74 % | 160.0 W/m² | 4.5 km/h | Westen | 9.7 km/h | 1019.1 hPa | 0.0 mm | 0.0 mm/h | sonnig |
| 05.09.2026 - 09.10Uhr | 20.0 °C | 15.1 °C | 73 % | 165.0 W/m² | 6.5 km/h | Westen | 9.7 km/h | 1019.1 hPa | 0.0 mm | 0.0 mm/h | sonnig |
| 05.09.2026 - 09.15Uhr | 20.2 °C | 15.1 °C | 72 % | 156.0 W/m² | 10.0 km/h | Westen | 14.4 km/h | 1019.3 hPa | 0.0 mm | 0.0 mm/h | sonnig |
| 05.09.2026 - 09.20Uhr | 20.3 °C | 15.1 °C | 72 % | 181.0 W/m² | 10.0 km/h | Westen | 14.4 km/h | 1019.3 hPa | 0.0 mm | 0.0 mm/h | sonnig |
| 05.09.2026 - 09.25Uhr | 20.3 °C | 15.1 °C | 72 % | 283.0 W/m² | 10.1 km/h | West-NW | 16.2 km/h | 1019.3 hPa | 0.0 mm | 0.0 mm/h | sonnig |
| 05.09.2026 - 09.30Uhr | 20.4 °C | 15.1 °C | 71 % | 255.0 W/m² | 10.9 km/h | Westen | 16.2 km/h | 1019.4 hPa | 0.0 mm | 0.0 mm/h | sonnig |
| 05.09.2026 - 09.35Uhr | 20.5 °C | 15.1 °C | 71 % | 237.0 W/m² | 6.8 km/h | Westen | 14.4 km/h | 1019.5 hPa | 0.0 mm | 0.0 mm/h | sonnig |
| 05.09.2026 - 09.40Uhr | 20.6 °C | 15.2 °C | 71 % | 262.0 W/m² | 9.9 km/h | Westen | 14.4 km/h | 1019.5 hPa | 0.0 mm | 0.0 mm/h | sonnig |
| 05.09.2026 - 09.45Uhr | 20.6 °C | 15.0 °C | 70 % | 381.0 W/m² | 9.7 km/h | Westen | 14.4 km/h | 1019.5 hPa | 0.0 mm | 0.0 mm/h | sonnig |
| 05.09.2026 - 09.50Uhr | 20.7 °C | 15.0 °C | 70 % | 381.0 W/m² | 9.9 km/h | Westen | 14.4 km/h | 1019.5 hPa | 0.0 mm | 0.0 mm/h | sonnig |
| 05.09.2026 - 09.55Uhr | 20.8 °C | 15.1 °C | 70 % | 181.0 W/m² | 8.9 km/h | Westen | 14.4 km/h | 1019.6 hPa | 0.0 mm | 0.0 mm/h | sonnig |
| 05.09.2026 - 10.00Uhr | 20.6 °C | 14.9 °C | 70 % | 190.0 W/m² | 8.7 km/h | West-SW | 16.2 km/h | 1019.6 hPa | 0.0 mm | 0.0 mm/h | sonnig |
| 05.09.2026 - 10.05Uhr | 20.7 °C | 15.0 °C | 70 % | 167.0 W/m² | 13.9 km/h | West-NW | 22.7 km/h | 1019.8 hPa | 0.0 mm | 0.0 mm/h | sonnig |
| 05.09.2026 - 10.10Uhr | 20.7 °C | 15.0 °C | 70 % | 151.0 W/m² | 11.5 km/h | West-NW | 16.2 km/h | 1019.8 hPa | 0.0 mm | 0.0 mm/h | sonnig |
| 05.09.2026 - 10.15Uhr | 20.8 °C | 15.1 °C | 70 % | 213.0 W/m² | 10.4 km/h | Westen | 14.4 km/h | 1019.8 hPa | 0.0 mm | 0.0 mm/h | sonnig |
| 05.09.2026 - 10.20Uhr | 20.8 °C | 15.1 °C | 70 % | 213.0 W/m² | 11.5 km/h | Westen | 14.4 km/h | 1019.9 hPa | 0.0 mm | 0.0 mm/h | sonnig |
| 05.09.2026 - 10.25Uhr | 20.8 °C | 15.1 °C | 70 % | 156.0 W/m² | 12.4 km/h | Westen | 17.6 km/h | 1020.0 hPa | 0.0 mm | 0.0 mm/h | sonnig |
| 05.09.2026 - 10.30Uhr | 20.7 °C | 15.0 °C | 70 % | 188.0 W/m² | 11.9 km/h | Westen | 17.6 km/h | 1020.0 hPa | 0.0 mm | 0.0 mm/h | sonnig |
| 05.09.2026 - 10.35Uhr | 20.8 °C | 15.1 °C | 70 % | 241.0 W/m² | 10.6 km/h | Westen | 20.9 km/h | 1020.0 hPa | 0.0 mm | 0.0 mm/h | sonnig |
| 05.09.2026 - 10.40Uhr | 20.8 °C | 15.2 °C | 70 % | 246.0 W/m² | 8.2 km/h | Westen | 14.4 km/h | 1020.1 hPa | 0.0 mm | 0.0 mm/h | sonnig |
| 05.09.2026 - 10.45Uhr | 20.9 °C | 15.2 °C | 70 % | 244.0 W/m² | 9.5 km/h | Westen | 13.0 km/h | 1020.2 hPa | 0.0 mm | 0.0 mm/h | sonnig |
| 05.09.2026 - 10.50Uhr | 21.1 °C | 15.2 °C | 69 % | 246.0 W/m² | 9.6 km/h | West-NW | 14.4 km/h | 1020.2 hPa | 0.0 mm | 0.0 mm/h | sonnig |
| 05.09.2026 - 10.55Uhr | 21.2 °C | 15.4 °C | 70 % | 260.0 W/m² | 9.3 km/h | Westen | 14.4 km/h | 1020.2 hPa | 0.0 mm | 0.0 mm/h | sonnig |
| 05.09.2026 - 11.00Uhr | 21.1 °C | 15.2 °C | 69 % | 304.0 W/m² | 8.5 km/h | West-SW | 11.2 km/h | 1020.3 hPa | 0.0 mm | 0.0 mm/h | sonnig |
| 05.09.2026 - 11.05Uhr | 21.1 °C | 15.3 °C | 69 % | 306.0 W/m² | 8.8 km/h | West-SW | 16.2 km/h | 1020.3 hPa | 0.0 mm | 0.0 mm/h | sonnig |
| 05.09.2026 - 11.10Uhr | 21.2 °C | 15.3 °C | 69 % | 281.0 W/m² | 10.3 km/h | Westen | 16.2 km/h | 1020.4 hPa | 0.0 mm | 0.0 mm/h | sonnig |
| 05.09.2026 - 11.15Uhr | 21.3 °C | 15.4 °C | 69 % | 281.0 W/m² | 9.8 km/h | West-SW | 16.2 km/h | 1020.4 hPa | 0.0 mm | 0.0 mm/h | sonnig |
| 05.09.2026 - 11.20Uhr | 21.3 °C | 15.4 °C | 69 % | 221.0 W/m² | 11.5 km/h | Westen | 16.2 km/h | 1020.4 hPa | 0.0 mm | 0.0 mm/h | sonnig |
| 05.09.2026 - 11.25Uhr | 21.2 °C | 15.3 °C | 69 % | 174.0 W/m² | 8.1 km/h | West-NW | 13.0 km/h | 1020.5 hPa | 0.0 mm | 0.0 mm/h | sonnig |
| 05.09.2026 - 11.30Uhr | 21.1 °C | 15.4 °C | 70 % | 121.0 W/m² | 7.8 km/h | West-NW | 11.2 km/h | 1020.5 hPa | 0.0 mm | 0.0 mm/h | sonnig |
| 05.09.2026 - 11.35Uhr | 21.1 °C | 15.4 °C | 70 % | 151.0 W/m² | 4.9 km/h | Westen | 7.9 km/h | 1020.6 hPa | 0.0 mm | 0.0 mm/h | sonnig |
| 05.09.2026 - 11.40Uhr | 21.2 °C | 15.5 °C | 70 % | 151.0 W/m² | 5.9 km/h | Nordwesten | 9.7 km/h | 1020.6 hPa | 0.0 mm | 0.0 mm/h | sonnig |
| 05.09.2026 - 11.45Uhr | 21.2 °C | 15.5 °C | 70 % | 144.0 W/m² | 7.6 km/h | West-NW | 11.2 km/h | 1020.6 hPa | 0.0 mm | 0.0 mm/h | sonnig |
| 05.09.2026 - 11.50Uhr | 21.2 °C | 15.5 °C | 70 % | 163.0 W/m² | 5.8 km/h | West-NW | 9.7 km/h | 1020.6 hPa | 0.0 mm | 0.0 mm/h | sonnig |
| 05.09.2026 - 11.55Uhr | 21.3 °C | 15.6 °C | 70 % | 193.0 W/m² | 9.1 km/h | Nordwesten | 11.2 km/h | 1020.6 hPa | 0.0 mm | 0.0 mm/h | sonnig |
| 05.09.2026 - 12.00Uhr | 21.2 °C | 15.5 °C | 70 % | 258.0 W/m² | 7.8 km/h | Nordwesten | 9.7 km/h | 1020.5 hPa | 0.0 mm | 0.0 mm/h | sonnig |
| 05.09.2026 - 12.05Uhr | 21.3 °C | 15.7 °C | 70 % | 232.0 W/m² | 8.4 km/h | West-NW | 13.0 km/h | 1020.5 hPa | 0.0 mm | 0.0 mm/h | sonnig |
| 05.09.2026 - 12.10Uhr | 21.4 °C | 15.7 °C | 70 % | 322.0 W/m² | 7.7 km/h | West-NW | 11.2 km/h | 1020.5 hPa | 0.0 mm | 0.0 mm/h | sonnig |
| 05.09.2026 - 12.15Uhr | 21.3 °C | 15.6 °C | 70 % | 287.0 W/m² | 9.4 km/h | West-NW | 13.0 km/h | 1020.5 hPa | 0.0 mm | 0.0 mm/h | sonnig |
| 05.09.2026 - 12.20Uhr | 21.5 °C | 15.8 °C | 70 % | 311.0 W/m² | 10.3 km/h | West-NW | 17.6 km/h | 1020.6 hPa | 0.0 mm | 0.0 mm/h | sonnig |
| 05.09.2026 - 12.25Uhr | 21.7 °C | 15.8 °C | 69 % | 348.0 W/m² | 10.4 km/h | West-NW | 14.4 km/h | 1020.7 hPa | 0.0 mm | 0.0 mm/h | sonnig |
| 05.09.2026 - 12.30Uhr | 21.7 °C | 15.9 °C | 70 % | 352.0 W/m² | 10.9 km/h | Westen | 17.6 km/h | 1020.7 hPa | 0.0 mm | 0.0 mm/h | sonnig |
| 05.09.2026 - 12.35Uhr | 21.7 °C | 15.9 °C | 69 % | 362.0 W/m² | 11.0 km/h | West-NW | 16.2 km/h | 1020.7 hPa | 0.0 mm | 0.0 mm/h | sonnig |
| 05.09.2026 - 12.40Uhr | 21.8 °C | 16.0 °C | 70 % | 489.0 W/m² | 10.6 km/h | West-NW | 17.6 km/h | 1020.7 hPa | 0.0 mm | 0.0 mm/h | sonnig |
| 05.09.2026 - 12.45Uhr | 22.0 °C | 16.2 °C | 70 % | 489.0 W/m² | 10.5 km/h | Westen | 16.2 km/h | 1020.6 hPa | 0.0 mm | 0.0 mm/h | sonnig |
| 05.09.2026 - 12.50Uhr | 22.4 °C | 16.4 °C | 69 % | 990.0 W/m² | 9.9 km/h | West-NW | 16.2 km/h | 1020.6 hPa | 0.0 mm | 0.0 mm/h | sonnig |
| 05.09.2026 - 12.55Uhr | 22.8 °C | 16.4 °C | 67 % | 628.0 W/m² | 13.7 km/h | Westen | 19.4 km/h | 1020.5 hPa | 0.0 mm | 0.0 mm/h | sonnig |
| 05.09.2026 - 13.00Uhr | 22.5 °C | 16.1 °C | 67 % | 425.0 W/m² | 11.4 km/h | Westen | 14.4 km/h | 1020.6 hPa | 0.0 mm | 0.0 mm/h | sonnig |
| 05.09.2026 - 13.05Uhr | 22.3 °C | 16.0 °C | 68 % | 343.0 W/m² | 11.4 km/h | Westen | 17.6 km/h | 1020.6 hPa | 0.0 mm | 0.0 mm/h | sonnig |
| 05.09.2026 - 13.10Uhr | 22.2 °C | 15.9 °C | 68 % | 325.0 W/m² | 11.4 km/h | West-SW | 19.4 km/h | 1020.6 hPa | 0.0 mm | 0.0 mm/h | sonnig |
| 05.09.2026 - 13.15Uhr | 22.3 °C | 16.1 °C | 68 % | 352.0 W/m² | 10.4 km/h | West-NW | 16.2 km/h | 1020.6 hPa | 0.0 mm | 0.0 mm/h | sonnig |
| 05.09.2026 - 13.20Uhr | 22.6 °C | 16.1 °C | 67 % | 411.0 W/m² | 10.3 km/h | West-NW | 16.2 km/h | 1020.6 hPa | 0.0 mm | 0.0 mm/h | sonnig |
| 05.09.2026 - 13.25Uhr | 22.7 °C | 16.1 °C | 66 % | 313.0 W/m² | 12.0 km/h | West-NW | 16.2 km/h | 1020.6 hPa | 0.0 mm | 0.0 mm/h | sonnig |
| 05.09.2026 - 13.30Uhr | 22.7 °C | 16.3 °C | 67 % | 142.0 W/m² | 9.7 km/h | West-NW | 14.4 km/h | 1020.7 hPa | 0.0 mm | 0.0 mm/h | sonnig |
| 05.09.2026 - 13.35Uhr | 22.4 °C | 16.0 °C | 67 % | 86.0 W/m² | 9.5 km/h | West-NW | 14.4 km/h | 1020.8 hPa | 0.0 mm | 0.0 mm/h | sonnig |
| 05.09.2026 - 13.40Uhr | 22.0 °C | 15.9 °C | 68 % | 158.0 W/m² | 6.4 km/h | West-NW | 9.7 km/h | 1020.8 hPa | 0.0 mm | 0.0 mm/h | sonnig |
| 05.09.2026 - 13.45Uhr | 22.1 °C | 16.1 °C | 69 % | 179.0 W/m² | 11.1 km/h | West-NW | 16.2 km/h | 1020.8 hPa | 0.0 mm | 0.0 mm/h | sonnig |
| 05.09.2026 - 13.50Uhr | 21.9 °C | 16.1 °C | 70 % | 216.0 W/m² | 14.5 km/h | Nordwesten | 22.7 km/h | 1020.8 hPa | 0.0 mm | 0.0 mm/h | sonnig |
| 05.09.2026 - 13.55Uhr | 21.7 °C | 16.1 °C | 71 % | 204.0 W/m² | 14.5 km/h | West-NW | 17.6 km/h | 1020.8 hPa | 0.0 mm | 0.0 mm/h | sonnig |